首页
METAR-TAF:

METAR-TAF

机场 :

聖地牙哥, 多米尼加共和国

纬度: 19-27N, 经度: 070-42W, 海拔: 183米

当前天气观测

该预报发布于46分钟前的19:00 UTC
风速14节,风向东南
温度 32°C
湿度 52%
气压 1014 hPa
能见度10公里或以上
少量云层高于2000英尺, 积雨云.
散云层高于2500英尺

METAR: MDST 251900Z 14014KT 9999 FEW020CB SCT025 32/21 Q1014 CB/SE

时间: 15:46 (19:46 UTC)

预报

该预报发布于3小时和46分钟前的16:00 UTC
预报有效从25日的 18点(UTC)到 26日的 18点(UTC)
风速10节,风向东南
能見度: 7000
散云层高于2300英尺
少量云层高于2000英尺, 积雨云.
散云层高于2400英尺
雷暴, 小雨

TAF: MDST 251600Z 2518/2618 13010KT 9999 SCT023 2518/2600 7000 -TSRA FEW020CB SCT024

超过4000个机场的气象观测和天气预报(METAR&TAF报告)。

可查询的气象台以黄色和红色小点在地图上表示。

将鼠标移到小点上方,可查看气象台名称。

然后点击查看天气观测和预报。

如需切换地图:点击带黑十字的绿色按钮放大地图;点击带横线的绿色按钮缩小地图;或者点击绿色箭头查看邻近地区的地图。


METAR-TAF: